sensor_id;sensor_type;location;lat;lon;timestamp;temperature;humidity
11399;DHT22;5755;48.116;11.608;2022-07-29T00:00:48;20.00;62.90
11399;DHT22;5755;48.116;11.608;2022-07-29T00:13:06;20.10;60.10
11399;DHT22;5755;48.116;11.608;2022-07-29T00:15:50;20.10;61.10
11399;DHT22;5755;48.116;11.608;2022-07-29T00:21:39;20.00;63.60
11399;DHT22;5755;48.116;11.608;2022-07-29T00:24:17;20.00;64.10
11399;DHT22;5755;48.116;11.608;2022-07-29T00:27:11;19.90;66.60
11399;DHT22;5755;48.116;11.608;2022-07-29T00:32:57;19.90;65.50
11399;DHT22;5755;48.116;11.608;2022-07-29T00:38:46;20.00;70.00
11399;DHT22;5755;48.116;11.608;2022-07-29T00:41:13;20.00;66.80
11399;DHT22;5755;48.116;11.608;2022-07-29T00:50:26;20.00;64.40
11399;DHT22;5755;48.116;11.608;2022-07-29T00:56:41;20.00;64.30
11399;DHT22;5755;48.116;11.608;2022-07-29T01:02:53;20.20;58.40
11399;DHT22;5755;48.116;11.608;2022-07-29T01:08:47;20.20;58.90
11399;DHT22;5755;48.116;11.608;2022-07-29T01:15:12;20.20;58.70
11399;DHT22;5755;48.116;11.608;2022-07-29T01:18:01;20.20;56.10
11399;DHT22;5755;48.116;11.608;2022-07-29T01:20:46;20.10;58.00
11399;DHT22;5755;48.116;11.608;2022-07-29T01:27:04;20.10;57.70
11399;DHT22;5755;48.116;11.608;2022-07-29T01:30:01;20.00;56.40
11399;DHT22;5755;48.116;11.608;2022-07-29T01:36:22;20.00;59.40
11399;DHT22;5755;48.116;11.608;2022-07-29T01:39:26;20.00;55.90
11399;DHT22;5755;48.116;11.608;2022-07-29T01:42:22;20.00;57.60
11399;DHT22;5755;48.116;11.608;2022-07-29T01:44:57;19.90;59.00
11399;DHT22;5755;48.116;11.608;2022-07-29T01:47:56;20.00;57.20
11399;DHT22;5755;48.116;11.608;2022-07-29T01:54:10;19.80;59.30
11399;DHT22;5755;48.116;11.608;2022-07-29T01:56:55;19.70;60.10
11399;DHT22;5755;48.116;11.608;2022-07-29T02:08:43;19.70;59.20
11399;DHT22;5755;48.116;11.608;2022-07-29T02:11:18;19.70;57.20
11399;DHT22;5755;48.116;11.608;2022-07-29T02:17:18;19.80;58.10
11399;DHT22;5755;48.116;11.608;2022-07-29T02:30:08;19.70;58.50
11399;DHT22;5755;48.116;11.608;2022-07-29T02:32:37;19.70;63.50
11399;DHT22;5755;48.116;11.608;2022-07-29T02:35:13;19.50;60.70
11399;DHT22;5755;48.116;11.608;2022-07-29T02:41:16;19.50;61.10
11399;DHT22;5755;48.116;11.608;2022-07-29T02:47:33;19.70;60.20
11399;DHT22;5755;48.116;11.608;2022-07-29T02:50:37;19.80;59.60
11399;DHT22;5755;48.116;11.608;2022-07-29T02:53:18;19.80;58.50
11399;DHT22;5755;48.116;11.608;2022-07-29T02:56:17;19.70;59.50
11399;DHT22;5755;48.116;11.608;2022-07-29T02:58:52;19.60;60.40
11399;DHT22;5755;48.116;11.608;2022-07-29T03:01:47;19.50;61.60
11399;DHT22;5755;48.116;11.608;2022-07-29T03:11:08;19.10;68.00
11399;DHT22;5755;48.116;11.608;2022-07-29T03:20:20;19.00;70.90
11399;DHT22;5755;48.116;11.608;2022-07-29T03:26:11;18.70;74.40
11399;DHT22;5755;48.116;11.608;2022-07-29T03:45:49;18.20;80.40
11399;DHT22;5755;48.116;11.608;2022-07-29T03:48:25;18.20;81.40
11399;DHT22;5755;48.116;11.608;2022-07-29T03:54:17;18.00;82.40
11399;DHT22;5755;48.116;11.608;2022-07-29T04:03:38;17.90;85.30
11399;DHT22;5755;48.116;11.608;2022-07-29T04:06:18;17.80;85.80
11399;DHT22;5755;48.116;11.608;2022-07-29T04:11:50;17.80;88.10
11399;DHT22;5755;48.116;11.608;2022-07-29T04:21:25;18.10;85.20
11399;DHT22;5755;48.116;11.608;2022-07-29T04:27:18;18.30;84.90
11399;DHT22;5755;48.116;11.608;2022-07-29T04:29:44;18.30;85.10
11399;DHT22;5755;48.116;11.608;2022-07-29T04:32:18;18.30;85.40
11399;DHT22;5755;48.116;11.608;2022-07-29T04:34:45;18.30;86.00
11399;DHT22;5755;48.116;11.608;2022-07-29T04:37:20;18.50;86.80
11399;DHT22;5755;48.116;11.608;2022-07-29T04:43:21;18.50;83.50
11399;DHT22;5755;48.116;11.608;2022-07-29T04:46:02;18.60;81.10
11399;DHT22;5755;48.116;11.608;2022-07-29T04:48:54;18.70;80.00
11399;DHT22;5755;48.116;11.608;2022-07-29T04:51:21;19.00;80.10
11399;DHT22;5755;48.116;11.608;2022-07-29T04:53:49;19.20;80.10
11399;DHT22;5755;48.116;11.608;2022-07-29T04:56:41;19.40;80.00
11399;DHT22;5755;48.116;11.608;2022-07-29T04:59:18;19.70;73.50
11399;DHT22;5755;48.116;11.608;2022-07-29T05:01:54;19.90;73.80
11399;DHT22;5755;48.116;11.608;2022-07-29T05:07:45;20.10;73.00
11399;DHT22;5755;48.116;11.608;2022-07-29T05:10:14;20.30;67.10
11399;DHT22;5755;48.116;11.608;2022-07-29T05:12:55;20.30;65.20
11399;DHT22;5755;48.116;11.608;2022-07-29T05:15:22;20.20;68.80
11399;DHT22;5755;48.116;11.608;2022-07-29T05:18:11;20.30;69.80
11399;DHT22;5755;48.116;11.608;2022-07-29T05:21:11;20.40;68.00
11399;DHT22;5755;48.116;11.608;2022-07-29T05:23:41;20.20;64.90
11399;DHT22;5755;48.116;11.608;2022-07-29T05:26:14;20.20;64.90
11399;DHT22;5755;48.116;11.608;2022-07-29T05:28:41;20.20;67.20
11399;DHT22;5755;48.116;11.608;2022-07-29T05:31:08;20.20;67.30
11399;DHT22;5755;48.116;11.608;2022-07-29T05:33:35;20.10;70.60
11399;DHT22;5755;48.116;11.608;2022-07-29T05:36:06;20.20;72.00
11399;DHT22;5755;48.116;11.608;2022-07-29T05:38:34;20.20;71.30
11399;DHT22;5755;48.116;11.608;2022-07-29T05:41:06;20.60;69.20
11399;DHT22;5755;48.116;11.608;2022-07-29T05:43:34;20.90;64.50
11399;DHT22;5755;48.116;11.608;2022-07-29T05:46:01;20.90;58.90
11399;DHT22;5755;48.116;11.608;2022-07-29T05:48:28;20.80;59.20
11399;DHT22;5755;48.116;11.608;2022-07-29T05:51:12;20.80;59.20
11399;DHT22;5755;48.116;11.608;2022-07-29T05:54:05;20.70;59.00
11399;DHT22;5755;48.116;11.608;2022-07-29T05:56:48;20.60;59.30
11399;DHT22;5755;48.116;11.608;2022-07-29T05:59:16;20.80;60.90
11399;DHT22;5755;48.116;11.608;2022-07-29T06:01:43;21.20;57.20
11399;DHT22;5755;48.116;11.608;2022-07-29T06:04:10;21.50;54.20
11399;DHT22;5755;48.116;11.608;2022-07-29T06:06:42;21.50;53.40
11399;DHT22;5755;48.116;11.608;2022-07-29T06:09:12;21.40;56.60
11399;DHT22;5755;48.116;11.608;2022-07-29T06:11:48;21.30;57.10
11399;DHT22;5755;48.116;11.608;2022-07-29T06:14:16;21.30;57.10
11399;DHT22;5755;48.116;11.608;2022-07-29T06:20:09;21.10;55.90
11399;DHT22;5755;48.116;11.608;2022-07-29T06:29:22;21.00;56.80
11399;DHT22;5755;48.116;11.608;2022-07-29T06:35:11;21.00;56.80
11399;DHT22;5755;48.116;11.608;2022-07-29T06:37:38;21.20;57.00
11399;DHT22;5755;48.116;11.608;2022-07-29T06:40:06;21.30;57.10
11399;DHT22;5755;48.116;11.608;2022-07-29T06:43:06;21.30;55.20
11399;DHT22;5755;48.116;11.608;2022-07-29T06:45:38;21.50;53.70
11399;DHT22;5755;48.116;11.608;2022-07-29T06:48:12;21.60;52.90
11399;DHT22;5755;48.116;11.608;2022-07-29T06:50:42;21.60;52.00
11399;DHT22;5755;48.116;11.608;2022-07-29T06:53:09;21.70;50.70
11399;DHT22;5755;48.116;11.608;2022-07-29T06:55:42;21.70;50.80
11399;DHT22;5755;48.116;11.608;2022-07-29T06:58:09;21.80;49.30
11399;DHT22;5755;48.116;11.608;2022-07-29T07:01:07;21.90;48.80
11399;DHT22;5755;48.116;11.608;2022-07-29T07:03:48;22.00;52.30
11399;DHT22;5755;48.116;11.608;2022-07-29T07:06:15;22.00;47.70
11399;DHT22;5755;48.116;11.608;2022-07-29T07:08:48;22.00;47.60
11399;DHT22;5755;48.116;11.608;2022-07-29T07:11:15;22.10;48.30
11399;DHT22;5755;48.116;11.608;2022-07-29T07:13:42;22.20;47.70
11399;DHT22;5755;48.116;11.608;2022-07-29T07:16:14;22.30;47.40
11399;DHT22;5755;48.116;11.608;2022-07-29T07:18:41;22.40;46.00
11399;DHT22;5755;48.116;11.608;2022-07-29T07:21:08;22.30;46.30
11399;DHT22;5755;48.116;11.608;2022-07-29T07:23:35;22.30;47.80
11399;DHT22;5755;48.116;11.608;2022-07-29T07:26:02;22.40;47.10
11399;DHT22;5755;48.116;11.608;2022-07-29T07:28:31;22.60;43.60
11399;DHT22;5755;48.116;11.608;2022-07-29T07:30:58;22.70;43.00
11399;DHT22;5755;48.116;11.608;2022-07-29T07:33:26;22.80;43.70
11399;DHT22;5755;48.116;11.608;2022-07-29T07:35:53;22.90;44.20
11399;DHT22;5755;48.116;11.608;2022-07-29T07:38:20;22.90;44.20
11399;DHT22;5755;48.116;11.608;2022-07-29T07:40:47;22.90;41.00
11399;DHT22;5755;48.116;11.608;2022-07-29T07:43:14;22.90;41.80
11399;DHT22;5755;48.116;11.608;2022-07-29T07:45:41;23.00;40.80
11399;DHT22;5755;48.116;11.608;2022-07-29T07:48:08;23.10;37.80
11399;DHT22;5755;48.116;11.608;2022-07-29T07:50:37;23.20;40.00
11399;DHT22;5755;48.116;11.608;2022-07-29T07:53:03;23.30;41.30
11399;DHT22;5755;48.116;11.608;2022-07-29T07:55:30;23.40;35.00
11399;DHT22;5755;48.116;11.608;2022-07-29T07:57:57;23.50;35.00
11399;DHT22;5755;48.116;11.608;2022-07-29T08:00:24;23.50;34.20
11399;DHT22;5755;48.116;11.608;2022-07-29T08:02:52;23.60;36.10
11399;DHT22;5755;48.116;11.608;2022-07-29T08:05:19;23.70;35.10
11399;DHT22;5755;48.116;11.608;2022-07-29T08:07:47;23.80;35.20
11399;DHT22;5755;48.116;11.608;2022-07-29T08:10:15;23.80;33.50
11399;DHT22;5755;48.116;11.608;2022-07-29T08:13:03;23.80;31.30
11399;DHT22;5755;48.116;11.608;2022-07-29T08:15:31;23.90;31.80
11399;DHT22;5755;48.116;11.608;2022-07-29T08:18:00;24.00;32.60
11399;DHT22;5755;48.116;11.608;2022-07-29T08:20:27;24.10;31.00
11399;DHT22;5755;48.116;11.608;2022-07-29T08:22:56;24.30;29.50
11399;DHT22;5755;48.116;11.608;2022-07-29T08:25:24;24.40;33.70
11399;DHT22;5755;48.116;11.608;2022-07-29T08:27:51;24.50;31.70
11399;DHT22;5755;48.116;11.608;2022-07-29T08:30:36;24.60;29.50
11399;DHT22;5755;48.116;11.608;2022-07-29T08:33:03;24.80;30.60
11399;DHT22;5755;48.116;11.608;2022-07-29T08:35:30;24.90;29.30
11399;DHT22;5755;48.116;11.608;2022-07-29T08:38:07;24.90;30.90
11399;DHT22;5755;48.116;11.608;2022-07-29T08:40:35;25.10;27.10
11399;DHT22;5755;48.116;11.608;2022-07-29T08:43:06;25.30;26.40
11399;DHT22;5755;48.116;11.608;2022-07-29T08:45:41;25.40;26.40
11399;DHT22;5755;48.116;11.608;2022-07-29T08:48:09;25.60;25.40
11399;DHT22;5755;48.116;11.608;2022-07-29T08:50:37;25.80;26.80
11399;DHT22;5755;48.116;11.608;2022-07-29T08:53:06;26.50;23.70
11399;DHT22;5755;48.116;11.608;2022-07-29T08:55:34;27.50;20.60
11399;DHT22;5755;48.116;11.608;2022-07-29T08:58:02;28.00;19.40
11399;DHT22;5755;48.116;11.608;2022-07-29T09:00:29;28.40;18.60
11399;DHT22;5755;48.116;11.608;2022-07-29T09:02:57;28.70;16.90
11399;DHT22;5755;48.116;11.608;2022-07-29T09:05:26;28.50;18.20
11399;DHT22;5755;48.116;11.608;2022-07-29T09:07:53;28.50;18.70
11399;DHT22;5755;48.116;11.608;2022-07-29T09:10:25;28.50;18.10
11399;DHT22;5755;48.116;11.608;2022-07-29T09:12:54;28.70;17.80
11399;DHT22;5755;48.116;11.608;2022-07-29T09:15:21;28.90;16.10
11399;DHT22;5755;48.116;11.608;2022-07-29T09:17:49;28.60;16.90
11399;DHT22;5755;48.116;11.608;2022-07-29T09:20:18;28.90;18.40
11399;DHT22;5755;48.116;11.608;2022-07-29T09:22:45;29.80;16.50
11399;DHT22;5755;48.116;11.608;2022-07-29T09:25:14;31.00;16.10
11399;DHT22;5755;48.116;11.608;2022-07-29T09:27:49;32.20;13.20
11399;DHT22;5755;48.116;11.608;2022-07-29T09:30:17;32.30;13.60
11399;DHT22;5755;48.116;11.608;2022-07-29T09:32:57;32.90;12.70
11399;DHT22;5755;48.116;11.608;2022-07-29T09:35:26;34.30;10.10
11399;DHT22;5755;48.116;11.608;2022-07-29T09:37:53;34.40;9.20
11399;DHT22;5755;48.116;11.608;2022-07-29T09:40:22;33.50;11.60
11399;DHT22;5755;48.116;11.608;2022-07-29T09:43:16;33.80;10.90
11399;DHT22;5755;48.116;11.608;2022-07-29T09:45:54;33.10;11.20
11399;DHT22;5755;48.116;11.608;2022-07-29T09:48:23;33.50;12.70
11399;DHT22;5755;48.116;11.608;2022-07-29T09:54:22;32.80;11.50
11399;DHT22;5755;48.116;11.608;2022-07-29T09:56:49;32.10;12.30
11399;DHT22;5755;48.116;11.608;2022-07-29T10:02:42;30.50;14.30
11399;DHT22;5755;48.116;11.608;2022-07-29T10:05:18;29.70;16.50
11399;DHT22;5755;48.116;11.608;2022-07-29T10:11:12;29.40;16.70
11399;DHT22;5755;48.116;11.608;2022-07-29T10:13:44;28.80;17.20
11399;DHT22;5755;48.116;11.608;2022-07-29T10:16:12;28.50;18.20
11399;DHT22;5755;48.116;11.608;2022-07-29T10:18:42;28.00;19.30
11399;DHT22;5755;48.116;11.608;2022-07-29T10:21:10;27.60;20.60
11399;DHT22;5755;48.116;11.608;2022-07-29T10:23:37;27.30;22.00
11399;DHT22;5755;48.116;11.608;2022-07-29T10:26:05;26.90;22.90
11399;DHT22;5755;48.116;11.608;2022-07-29T10:28:33;26.70;23.00
11399;DHT22;5755;48.116;11.608;2022-07-29T10:31:15;26.60;23.00
11399;DHT22;5755;48.116;11.608;2022-07-29T10:40:22;26.60;25.10
11399;DHT22;5755;48.116;11.608;2022-07-29T10:43:18;26.50;24.60
11399;DHT22;5755;48.116;11.608;2022-07-29T10:45:47;26.50;25.10
11399;DHT22;5755;48.116;11.608;2022-07-29T10:48:18;26.30;24.60
11399;DHT22;5755;48.116;11.608;2022-07-29T10:50:58;26.50;25.50
11399;DHT22;5755;48.116;11.608;2022-07-29T10:53:46;26.60;25.80
11399;DHT22;5755;48.116;11.608;2022-07-29T10:56:27;26.90;25.90
11399;DHT22;5755;48.116;11.608;2022-07-29T10:59:22;27.50;22.10
11399;DHT22;5755;48.116;11.608;2022-07-29T11:01:50;28.40;24.50
11399;DHT22;5755;48.116;11.608;2022-07-29T11:07:24;29.10;20.30
11399;DHT22;5755;48.116;11.608;2022-07-29T11:10:24;30.10;16.70
11399;DHT22;5755;48.116;11.608;2022-07-29T11:12:55;30.90;17.10
11399;DHT22;5755;48.116;11.608;2022-07-29T11:21:36;29.80;17.30
11399;DHT22;5755;48.116;11.608;2022-07-29T11:24:11;29.80;18.00
11399;DHT22;5755;48.116;11.608;2022-07-29T11:26:39;29.70;16.50
11399;DHT22;5755;48.116;11.608;2022-07-29T11:29:18;29.60;20.00
11399;DHT22;5755;48.116;11.608;2022-07-29T11:31:47;29.40;20.00
11399;DHT22;5755;48.116;11.608;2022-07-29T11:34:19;29.30;16.30
11399;DHT22;5755;48.116;11.608;2022-07-29T11:37:17;29.10;20.30
11399;DHT22;5755;48.116;11.608;2022-07-29T11:39:45;29.00;19.10
11399;DHT22;5755;48.116;11.608;2022-07-29T11:42:41;29.40;17.10
11399;DHT22;5755;48.116;11.608;2022-07-29T11:45:10;29.50;16.40
11399;DHT22;5755;48.116;11.608;2022-07-29T11:47:40;29.90;15.50
11399;DHT22;5755;48.116;11.608;2022-07-29T11:50:09;30.10;14.60
11399;DHT22;5755;48.116;11.608;2022-07-29T11:52:38;29.80;16.50
11399;DHT22;5755;48.116;11.608;2022-07-29T11:55:10;29.70;16.50
11399;DHT22;5755;48.116;11.608;2022-07-29T11:57:46;29.80;16.60
11399;DHT22;5755;48.116;11.608;2022-07-29T12:06:54;29.60;16.40
11399;DHT22;5755;48.116;11.608;2022-07-29T12:09:23;29.80;16.50
11399;DHT22;5755;48.116;11.608;2022-07-29T12:11:56;29.90;16.50
11399;DHT22;5755;48.116;11.608;2022-07-29T12:14:27;29.50;16.40
11399;DHT22;5755;48.116;11.608;2022-07-29T12:20:38;29.30;16.30
11399;DHT22;5755;48.116;11.608;2022-07-29T12:30:00;29.30;16.30
11399;DHT22;5755;48.116;11.608;2022-07-29T12:32:34;29.10;16.30
11399;DHT22;5755;48.116;11.608;2022-07-29T12:35:05;29.10;17.00
11399;DHT22;5755;48.116;11.608;2022-07-29T12:37:34;29.00;15.30
11399;DHT22;5755;48.116;11.608;2022-07-29T12:40:03;28.80;16.00
11399;DHT22;5755;48.116;11.608;2022-07-29T12:46:21;28.70;16.00
11399;DHT22;5755;48.116;11.608;2022-07-29T12:48:51;28.90;16.00
11399;DHT22;5755;48.116;11.608;2022-07-29T13:08:16;27.80;18.50
11399;DHT22;5755;48.116;11.608;2022-07-29T13:14:14;27.70;18.30
11399;DHT22;5755;48.116;11.608;2022-07-29T13:19:47;27.50;19.50
11399;DHT22;5755;48.116;11.608;2022-07-29T13:22:17;27.30;20.30
11399;DHT22;5755;48.116;11.608;2022-07-29T13:24:52;27.00;20.70
11399;DHT22;5755;48.116;11.608;2022-07-29T13:27:37;26.90;20.00
11399;DHT22;5755;48.116;11.608;2022-07-29T13:30:06;26.90;19.70
11399;DHT22;5755;48.116;11.608;2022-07-29T13:32:33;26.80;20.00
11399;DHT22;5755;48.116;11.608;2022-07-29T13:35:03;26.70;20.70
11399;DHT22;5755;48.116;11.608;2022-07-29T13:37:42;26.70;21.20
11399;DHT22;5755;48.116;11.608;2022-07-29T13:46:55;26.10;23.20
11399;DHT22;5755;48.116;11.608;2022-07-29T13:49:30;26.10;23.50
11399;DHT22;5755;48.116;11.608;2022-07-29T13:51:57;26.00;25.10
11399;DHT22;5755;48.116;11.608;2022-07-29T13:54:24;26.10;24.40
11399;DHT22;5755;48.116;11.608;2022-07-29T13:56:51;26.00;24.50
11399;DHT22;5755;48.116;11.608;2022-07-29T13:59:19;26.10;24.10
11399;DHT22;5755;48.116;11.608;2022-07-29T14:01:46;26.20;24.20
11399;DHT22;5755;48.116;11.608;2022-07-29T14:04:14;26.40;23.50
11399;DHT22;5755;48.116;11.608;2022-07-29T14:06:41;26.60;24.10
11399;DHT22;5755;48.116;11.608;2022-07-29T14:09:09;27.20;21.90
11399;DHT22;5755;48.116;11.608;2022-07-29T14:11:35;27.30;22.10
11399;DHT22;5755;48.116;11.608;2022-07-29T14:14:12;27.30;22.80
11399;DHT22;5755;48.116;11.608;2022-07-29T14:16:42;27.30;21.80
11399;DHT22;5755;48.116;11.608;2022-07-29T14:19:09;27.10;23.40
11399;DHT22;5755;48.116;11.608;2022-07-29T14:21:38;27.00;22.60
11399;DHT22;5755;48.116;11.608;2022-07-29T14:24:18;27.10;21.70
11399;DHT22;5755;48.116;11.608;2022-07-29T14:27:00;27.30;21.30
11399;DHT22;5755;48.116;11.608;2022-07-29T14:29:42;27.40;21.20
11399;DHT22;5755;48.116;11.608;2022-07-29T14:44:03;27.00;21.60
11399;DHT22;5755;48.116;11.608;2022-07-29T14:46:30;26.80;21.70
11399;DHT22;5755;48.116;11.608;2022-07-29T14:49:06;26.70;21.70
11399;DHT22;5755;48.116;11.608;2022-07-29T14:51:33;26.50;23.40
11399;DHT22;5755;48.116;11.608;2022-07-29T15:04:14;26.20;22.20
11399;DHT22;5755;48.116;11.608;2022-07-29T15:10:03;26.40;21.70
11399;DHT22;5755;48.116;11.608;2022-07-29T15:13:00;26.30;23.30
11399;DHT22;5755;48.116;11.608;2022-07-29T15:15:27;26.20;24.30
11399;DHT22;5755;48.116;11.608;2022-07-29T15:31:24;25.70;24.80
11399;DHT22;5755;48.116;11.608;2022-07-29T15:37:31;25.60;24.80
11399;DHT22;5755;48.116;11.608;2022-07-29T15:40:00;25.70;24.90
11399;DHT22;5755;48.116;11.608;2022-07-29T15:42:27;25.60;24.80
11399;DHT22;5755;48.116;11.608;2022-07-29T15:45:00;25.70;25.40
11399;DHT22;5755;48.116;11.608;2022-07-29T15:47:30;25.60;26.10
11399;DHT22;5755;48.116;11.608;2022-07-29T15:50:24;25.50;26.70
11399;DHT22;5755;48.116;11.608;2022-07-29T15:52:51;25.50;28.00
11399;DHT22;5755;48.116;11.608;2022-07-29T15:55:19;25.40;28.00
11399;DHT22;5755;48.116;11.608;2022-07-29T15:57:46;25.30;28.60
11399;DHT22;5755;48.116;11.608;2022-07-29T16:00:14;25.20;29.30
11399;DHT22;5755;48.116;11.608;2022-07-29T16:02:43;25.10;30.30
11399;DHT22;5755;48.116;11.608;2022-07-29T16:05:10;24.90;33.40
11399;DHT22;5755;48.116;11.608;2022-07-29T16:07:37;24.70;36.10
11399;DHT22;5755;48.116;11.608;2022-07-29T16:10:07;24.50;35.10
11399;DHT22;5755;48.116;11.608;2022-07-29T16:12:33;24.40;34.80
11399;DHT22;5755;48.116;11.608;2022-07-29T16:15:07;24.40;35.40
11399;DHT22;5755;48.116;11.608;2022-07-29T16:17:36;24.30;35.70
11399;DHT22;5755;48.116;11.608;2022-07-29T16:20:06;24.30;35.70
11399;DHT22;5755;48.116;11.608;2022-07-29T16:22:35;24.20;35.60
11399;DHT22;5755;48.116;11.608;2022-07-29T16:25:12;24.10;38.30
11399;DHT22;5755;48.116;11.608;2022-07-29T16:27:39;24.20;38.70
11399;DHT22;5755;48.116;11.608;2022-07-29T16:30:07;24.10;36.60
11399;DHT22;5755;48.116;11.608;2022-07-29T16:42:51;24.00;40.10
11399;DHT22;5755;48.116;11.608;2022-07-29T16:48:54;23.90;42.80
11399;DHT22;5755;48.116;11.608;2022-07-29T16:51:21;23.80;41.70
11399;DHT22;5755;48.116;11.608;2022-07-29T17:00:38;23.60;42.60
11399;DHT22;5755;48.116;11.608;2022-07-29T17:06:54;23.50;43.80
11399;DHT22;5755;48.116;11.608;2022-07-29T17:13:21;23.40;45.10
11399;DHT22;5755;48.116;11.608;2022-07-29T17:16:22;23.30;43.80
11399;DHT22;5755;48.116;11.608;2022-07-29T17:18:52;23.10;42.30
11399;DHT22;5755;48.116;11.608;2022-07-29T17:24:50;23.00;39.10
11399;DHT22;5755;48.116;11.608;2022-07-29T17:27:20;22.90;39.70
11399;DHT22;5755;48.116;11.608;2022-07-29T17:29:47;23.00;42.10
11399;DHT22;5755;48.116;11.608;2022-07-29T17:32:16;23.00;44.20
11399;DHT22;5755;48.116;11.608;2022-07-29T17:41:32;22.70;50.90
11399;DHT22;5755;48.116;11.608;2022-07-29T17:44:36;22.60;53.50
11399;DHT22;5755;48.116;11.608;2022-07-29T18:24:50;20.60;59.50
11399;DHT22;5755;48.116;11.608;2022-07-29T18:47:48;20.40;58.20
11399;DHT22;5755;48.116;11.608;2022-07-29T18:54:00;20.40;58.20
11399;DHT22;5755;48.116;11.608;2022-07-29T19:06:26;20.10;66.70
11399;DHT22;5755;48.116;11.608;2022-07-29T19:12:18;20.00;71.60
11399;DHT22;5755;48.116;11.608;2022-07-29T19:25:16;19.60;80.50
11399;DHT22;5755;48.116;11.608;2022-07-29T20:54:15;18.20;95.70
11399;DHT22;5755;48.116;11.608;2022-07-29T21:17:38;18.00;98.10
11399;DHT22;5755;48.116;11.608;2022-07-29T21:30:25;17.90;98.60
11399;DHT22;5755;48.116;11.608;2022-07-29T21:38:38;17.90;99.20
11399;DHT22;5755;48.116;11.608;2022-07-29T21:44:33;18.00;98.50
11399;DHT22;5755;48.116;11.608;2022-07-29T21:57:08;17.90;98.80
11399;DHT22;5755;48.116;11.608;2022-07-29T22:00:09;17.90;98.80
11399;DHT22;5755;48.116;11.608;2022-07-29T22:02:40;17.80;99.00
11399;DHT22;5755;48.116;11.608;2022-07-29T22:08:29;17.90;99.60
11399;DHT22;5755;48.116;11.608;2022-07-29T22:14:26;17.90;98.60
11399;DHT22;5755;48.116;11.608;2022-07-29T22:17:01;17.80;99.20
11399;DHT22;5755;48.116;11.608;2022-07-29T22:23:12;17.80;99.40
11399;DHT22;5755;48.116;11.608;2022-07-29T22:25:43;17.80;99.10
11399;DHT22;5755;48.116;11.608;2022-07-29T22:31:33;17.70;99.60
11399;DHT22;5755;48.116;11.608;2022-07-29T22:37:23;17.50;99.10
11399;DHT22;5755;48.116;11.608;2022-07-29T22:43:12;17.50;99.90
11399;DHT22;5755;48.116;11.608;2022-07-29T22:55:50;17.50;99.80
11399;DHT22;5755;48.116;11.608;2022-07-29T22:58:21;17.50;99.90
11399;DHT22;5755;48.116;11.608;2022-07-29T23:04:30;17.50;99.80
11399;DHT22;5755;48.116;11.608;2022-07-29T23:07:07;17.60;99.60
11399;DHT22;5755;48.116;11.608;2022-07-29T23:09:37;17.70;99.40
11399;DHT22;5755;48.116;11.608;2022-07-29T23:28:56;17.40;99.90
11399;DHT22;5755;48.116;11.608;2022-07-29T23:38:30;17.50;99.90
11399;DHT22;5755;48.116;11.608;2022-07-29T23:44:32;17.30;99.90
11399;DHT22;5755;48.116;11.608;2022-07-29T23:50:21;17.40;99.90
11399;DHT22;5755;48.116;11.608;2022-07-29T23:56:10;17.40;99.90
